Lotniskowe dane METAR     EFOU Oulu Airport
Temperatura
64°F Temperatura
52°F Punkt rosy
64% Wilgotność



Wiatr
14 MPH
23 KM/H
6 M/S
12 KTS



120°
ESE
Warunki bieżące

Czyste Czyste
Ciśnienie 1022.92 (hPa) - 30.21 (inHg)
Widoczność 6.2 (mil) - 10 (km)
Lotnisko
Kod lotniska EFOU

Położenie: Oulu Airport
Odległość: 83 (mi)

Metar:
EFOU 280220Z AUTO 12012KT CAVOK 18/11 Q1023

Czas: 28-06-2022 05:20 EEST